Time;durP1;ratioP1;P1;durP2;ratioP2;P2;SDS_P1;SDS_P2;PMS_P1;PMS_P2;Temp;Humidity;BMP_temperature;BMP_pressure;BME280_temperature;BME280_humidity;BME280_pressure;Samples;Min_cycle;Max_cycle;Signal;HPM_P1;HPM_P2
2022/02/11 00:08:59;;;;;;;2.17;0.00;;;4.50;99.90;;;;;;5015297;28;20062;-73
2022/02/11 00:11:38;;;;;;;4.40;0.10;;;4.50;99.90;;;;;;5014657;28;20037;-73
2022/02/11 00:14:05;;;;;;;4.00;0.05;;;4.50;99.90;;;;;;5014887;28;20103;-73
2022/02/11 00:16:32;;;;;;;7.10;0.20;;;4.50;99.90;;;;;;4997013;28;20014;-73
2022/02/11 00:19:00;;;;;;;3.55;0.80;;;4.50;99.90;;;;;;5014770;28;20029;-73
2022/02/11 00:21:28;;;;;;;6.50;0.30;;;4.50;99.90;;;;;;4997166;28;20487;-73
2022/02/11 00:23:55;;;;;;;6.10;0.40;;;4.50;99.90;;;;;;5014592;28;20387;-73
2022/02/11 00:26:21;;;;;;;4.47;0.00;;;4.50;99.90;;;;;;5014436;28;20029;-73
2022/02/11 00:29:41;;;;;;;12.05;0.28;;;4.60;99.90;;;;;;5014416;28;20034;-73
2022/02/11 00:34:40;;;;;;;6.40;0.10;;;4.90;99.90;;;;;;4944400;28;20039;-73
2022/02/11 00:37:13;;;;;;;12.70;2.05;;;5.10;99.90;;;;;;4996828;28;20010;-73
2022/02/11 00:40:11;;;;;;;7.65;0.43;;;5.20;99.90;;;;;;4996639;28;20026;-73
2022/02/11 00:45:38;;;;;;;4.50;0.15;;;5.40;99.90;;;;;;5015023;28;20116;-73
2022/02/11 01:04:23;;;;;;;9.38;0.20;;;5.70;99.90;;;;;;5014274;28;20165;-73
2022/02/11 01:06:49;;;;;;;11.95;0.75;;;5.70;99.90;;;;;;5013822;28;20105;-73
2022/02/11 01:09:14;;;;;;;8.52;0.28;;;5.70;99.90;;;;;;5014015;28;20104;-74
2022/02/11 01:14:07;;;;;;;9.63;0.13;;;5.50;99.90;;;;;;5014028;28;20041;-74
2022/02/11 01:16:41;;;;;;;7.53;1.10;;;5.40;99.90;;;;;;5013729;28;20029;-74
2022/02/11 01:21:56;;;;;;;9.57;0.65;;;5.40;99.90;;;;;;5013729;28;20113;-74
2022/02/11 01:25:22;;;;;;;8.48;0.40;;;5.40;99.90;;;;;;5016210;28;20030;-74
2022/02/11 01:30:06;;;;;;;4.55;0.15;;;5.60;99.90;;;;;;5018042;28;19913;-75
2022/02/11 01:32:51;;;;;;;5.70;0.25;;;5.70;99.90;;;;;;5017677;28;20034;-75
2022/02/11 01:48:50;;;;;;;2.33;0.05;;;5.00;99.90;;;;;;5018462;28;20127;-74
2022/02/11 02:08:57;;;;;;;6.88;0.47;;;4.80;99.90;;;;;;5017439;28;20037;-74
2022/02/11 02:12:52;;;;;;;3.00;0.08;;;4.90;99.90;;;;;;5017567;28;20127;-74
2022/02/11 02:26:17;;;;;;;9.40;0.68;;;5.10;99.90;;;;;;5016783;28;20387;-74
2022/02/11 02:36:41;;;;;;;7.00;0.30;;;5.20;99.90;;;;;;5015798;28;20133;-74
2022/02/11 02:58:13;;;;;;;15.38;0.38;;;5.40;99.90;;;;;;5017250;28;20041;-74
2022/02/11 03:50:18;;;;;;;12.23;0.55;;;5.60;99.90;;;;;;5015329;28;20053;-73
2022/02/11 04:20:17;;;;;;;4.75;0.52;;;5.50;99.90;;;;;;5015452;28;20064;-74
2022/02/11 04:22:33;;;;;;;11.77;0.77;;;5.40;99.90;;;;;;5014887;28;20044;-73
2022/02/11 04:53:20;;;;;;;14.35;1.05;;;5.60;99.90;;;;;;5015037;28;20033;-74
2022/02/11 04:55:36;;;;;;;9.93;0.32;;;5.60;99.90;;;;;;5013616;28;20083;-74
2022/02/11 05:00:45;;;;;;;3.53;0.50;;;5.60;99.90;;;;;;5014816;28;20041;-73
2022/02/11 05:05:51;;;;;;;6.28;0.30;;;5.60;99.90;;;;;;5050533;28;20096;-74
2022/02/11 05:08:27;;;;;;;6.95;0.47;;;5.50;99.90;;;;;;5053582;28;20075;-74
2022/02/11 05:10:54;;;;;;;8.77;0.10;;;5.50;99.90;;;;;;5052060;28;20032;-74
2022/02/11 05:13:21;;;;;;;8.48;0.20;;;5.50;99.90;;;;;;5053241;28;20020;-74
2022/02/11 05:15:47;;;;;;;6.28;0.35;;;5.40;99.90;;;;;;5052485;28;20107;-74
2022/02/11 05:18:13;;;;;;;10.07;0.47;;;5.40;99.90;;;;;;5051864;28;20021;-74
2022/02/11 05:20:42;;;;;;;16.63;1.23;;;5.40;99.90;;;;;;5053434;28;20029;-74
2022/02/11 05:23:09;;;;;;;12.50;0.08;;;5.40;99.90;;;;;;5053176;28;20121;-74
2022/02/11 05:25:37;;;;;;;6.10;0.50;;;5.40;99.90;;;;;;5053424;28;20036;-74
2022/02/11 05:28:04;;;;;;;10.20;0.82;;;5.40;99.90;;;;;;5053456;28;20033;-74
2022/02/11 05:30:30;;;;;;;9.63;0.38;;;5.40;99.90;;;;;;5053611;28;20024;-74
2022/02/11 05:32:56;;;;;;;9.27;0.50;;;5.40;99.90;;;;;;5053041;28;20363;-74
2022/02/11 05:35:22;;;;;;;8.02;0.22;;;5.40;99.90;;;;;;5052958;28;20048;-74
2022/02/11 05:37:49;;;;;;;6.13;0.35;;;5.40;99.90;;;;;;5051866;28;20017;-74
2022/02/11 05:40:14;;;;;;;9.30;0.30;;;5.40;99.90;;;;;;5052113;28;20055;-74
2022/02/11 05:42:40;;;;;;;4.03;0.52;;;5.30;99.90;;;;;;5051698;28;20033;-73
2022/02/11 05:45:06;;;;;;;7.63;0.00;;;5.00;99.90;;;;;;5052912;28;20029;-73
2022/02/11 05:47:31;;;;;;;3.35;0.08;;;4.70;99.90;;;;;;5051712;28;20401;-73
2022/02/11 05:49:57;;;;;;;21.08;0.70;;;4.50;99.90;;;;;;5052930;28;20082;-73
2022/02/11 05:52:23;;;;;;;18.70;2.25;;;4.40;99.90;;;;;;5052979;28;20547;-73
2022/02/11 05:54:48;;;;;;;14.13;0.35;;;4.20;99.90;;;;;;5052821;28;20021;-74
2022/02/11 05:57:14;;;;;;;6.50;0.22;;;4.10;99.90;;;;;;5052855;28;20462;-74
2022/02/11 05:59:39;;;;;;;6.70;0.63;;;4.00;99.90;;;;;;5053183;28;20025;-74
2022/02/11 06:02:05;;;;;;;3.35;0.10;;;3.90;99.90;;;;;;5053317;28;20082;-74
2022/02/11 06:04:30;;;;;;;4.65;0.20;;;3.90;99.90;;;;;;5052857;28;20493;-74
2022/02/11 06:06:57;;;;;;;6.15;0.22;;;3.90;99.90;;;;;;5052809;28;20033;-75
2022/02/11 06:09:23;;;;;;;11.50;1.75;;;3.90;99.90;;;;;;5052626;28;20021;-75
2022/02/11 06:11:49;;;;;;;11.65;0.68;;;3.90;99.90;;;;;;5054443;28;20116;-75
2022/02/11 06:14:15;;;;;;;4.28;0.20;;;3.90;99.90;;;;;;5055233;28;20025;-74
2022/02/11 06:16:41;;;;;;;3.50;0.43;;;3.90;99.90;;;;;;5056494;28;20542;-74
2022/02/11 06:19:06;;;;;;;4.75;0.00;;;3.90;99.90;;;;;;5056347;28;20057;-73
2022/02/11 06:21:32;;;;;;;11.43;0.30;;;3.80;99.90;;;;;;5056321;28;20063;-74
2022/02/11 06:23:58;;;;;;;4.18;0.17;;;3.80;99.90;;;;;;5056955;28;20028;-73
2022/02/11 06:26:24;;;;;;;2.83;0.20;;;3.80;99.90;;;;;;5055036;28;20040;-73
2022/02/11 06:28:50;;;;;;;8.20;0.43;;;3.70;99.90;;;;;;5054941;28;20025;-74
2022/02/11 06:31:16;;;;;;;2.65;0.25;;;3.70;99.90;;;;;;5056381;28;20428;-72
2022/02/11 06:33:42;;;;;;;7.93;0.15;;;3.70;99.90;;;;;;5055029;28;20111;-75
2022/02/11 06:36:08;;;;;;;7.50;0.55;;;3.80;99.90;;;;;;5054993;28;20013;-74
2022/02/11 06:38:33;;;;;;;12.07;0.30;;;3.80;99.90;;;;;;5054875;28;20116;-74
2022/02/11 06:40:59;;;;;;;12.82;0.65;;;3.80;99.90;;;;;;5056392;28;20101;-74
2022/02/11 06:43:25;;;;;;;15.07;0.47;;;3.80;99.90;;;;;;5056225;28;20512;-74
2022/02/11 06:45:50;;;;;;;11.80;0.50;;;3.70;99.90;;;;;;5054868;28;20060;-75
2022/02/11 06:48:23;;;;;;;10.80;0.13;;;3.80;99.90;;;;;;5056320;28;20021;-74
2022/02/11 06:50:49;;;;;;;10.05;0.25;;;3.80;99.90;;;;;;5054557;28;20410;-74
2022/02/11 06:53:15;;;;;;;9.10;0.80;;;3.80;99.90;;;;;;5055784;28;20021;-74
2022/02/11 06:55:41;;;;;;;14.52;0.93;;;3.80;99.90;;;;;;5054811;28;20431;-74
2022/02/11 06:58:06;;;;;;;12.82;0.63;;;3.80;99.90;;;;;;5055824;28;20017;-74
2022/02/11 07:00:33;;;;;;;8.48;0.47;;;3.80;99.90;;;;;;5056378;28;20495;-76
2022/02/11 07:02:59;;;;;;;16.65;0.88;;;3.90;99.90;;;;;;5054418;28;20033;-74
2022/02/11 07:05:27;;;;;;;19.77;0.85;;;4.00;99.90;;;;;;5054327;28;20033;-75
2022/02/11 07:07:54;;;;;;;3.65;0.10;;;4.10;99.90;;;;;;5056123;28;20021;-75
2022/02/11 07:10:19;;;;;;;2.15;0.10;;;4.20;99.90;;;;;;5054339;28;20394;-76
2022/02/11 07:12:46;;;;;;;2.72;0.20;;;4.30;99.90;;;;;;5055653;28;20024;-73
2022/02/11 07:15:11;;;;;;;10.40;0.00;;;4.30;99.90;;;;;;5054527;28;20021;-76
2022/02/11 07:17:37;;;;;;;6.63;0.20;;;4.20;99.90;;;;;;5056425;28;20017;-77
2022/02/11 07:20:06;;;;;;;3.60;0.20;;;4.30;99.90;;;;;;5055212;28;20406;-77
2022/02/11 07:22:35;;;;;;;5.80;0.00;;;4.20;99.90;;;;;;5054526;28;20029;-77
2022/02/11 07:25:06;;;;;;;9.15;1.73;;;4.20;99.90;;;;;;5055371;28;20066;-75
2022/02/11 07:27:32;;;;;;;6.05;0.17;;;4.20;99.90;;;;;;5055987;28;20087;-75
2022/02/11 07:29:58;;;;;;;6.40;1.17;;;4.20;99.90;;;;;;5054200;28;20029;-76
2022/02/11 07:32:25;;;;;;;2.35;0.13;;;4.10;99.90;;;;;;5054699;28;20040;-77
2022/02/11 07:34:52;;;;;;;5.88;0.20;;;4.00;99.90;;;;;;5054116;28;20016;-75
2022/02/11 07:37:17;;;;;;;6.65;0.00;;;4.00;99.90;;;;;;5055958;28;20051;-75
2022/02/11 07:39:43;;;;;;;9.15;0.25;;;4.00;99.90;;;;;;5055180;28;20029;-76
2022/02/11 07:42:09;;;;;;;11.45;0.90;;;4.10;99.90;;;;;;5055459;28;20070;-76
2022/02/11 07:44:34;;;;;;;7.38;1.05;;;4.10;99.90;;;;;;5055153;28;20025;-76
2022/02/11 07:47:00;;;;;;;10.02;0.32;;;4.20;99.90;;;;;;5035918;28;20040;-76
2022/02/11 07:49:25;;;;;;;12.50;0.73;;;4.30;99.90;;;;;;5035203;28;20036;-77
2022/02/11 07:51:51;;;;;;;11.30;0.90;;;4.40;99.90;;;;;;5036312;28;20352;-77
2022/02/11 07:54:16;;;;;;;6.72;0.38;;;4.40;99.90;;;;;;5043959;28;20029;-76
2022/02/11 07:56:42;;;;;;;2.92;0.00;;;4.50;99.90;;;;;;5053648;28;20482;-76
2022/02/11 07:59:07;;;;;;;10.18;0.20;;;4.40;99.90;;;;;;5039351;28;20471;-76
2022/02/11 08:01:33;;;;;;;24.30;1.73;;;4.30;99.90;;;;;;5038317;28;20099;-76
2022/02/11 08:03:58;;;;;;;11.88;0.63;;;4.30;99.90;;;;;;5035634;28;20064;-76
2022/02/11 08:06:24;;;;;;;11.32;0.47;;;4.20;99.90;;;;;;5039897;28;20382;-76
2022/02/11 08:08:49;;;;;;;12.77;0.38;;;4.10;99.90;;;;;;5054420;28;20083;-76
2022/02/11 08:11:16;;;;;;;4.88;0.10;;;4.00;99.90;;;;;;5040206;28;20030;-76
2022/02/11 08:13:41;;;;;;;9.43;0.20;;;4.00;99.90;;;;;;5034858;28;20021;-76
2022/02/11 08:16:07;;;;;;;6.55;0.85;;;4.00;99.90;;;;;;5034259;28;20029;-76
2022/02/11 08:18:35;;;;;;;6.63;0.00;;;3.90;99.90;;;;;;5033494;28;20021;-75
2022/02/11 08:21:02;;;;;;;11.52;0.43;;;3.90;99.90;;;;;;5053958;28;20026;-75
2022/02/11 08:23:27;;;;;;;7.80;0.25;;;4.00;99.90;;;;;;5054233;28;20017;-76
2022/02/11 08:25:53;;;;;;;14.48;0.38;;;4.10;99.90;;;;;;5054506;28;20596;-75
2022/02/11 08:28:19;;;;;;;13.20;0.45;;;4.20;99.90;;;;;;5054251;28;20021;-75
2022/02/11 08:30:46;;;;;;;9.90;0.75;;;4.30;99.90;;;;;;5053989;28;20478;-75
2022/02/11 08:33:12;;;;;;;9.15;0.20;;;4.30;99.90;;;;;;5051892;28;20032;-74
2022/02/11 08:35:37;;;;;;;8.73;0.73;;;4.30;99.90;;;;;;5053738;28;20084;-73
2022/02/11 08:38:03;;;;;;;21.73;1.00;;;4.40;99.90;;;;;;5044558;28;20021;-74
2022/02/11 08:40:29;;;;;;;8.38;0.20;;;4.40;99.90;;;;;;5034583;28;20032;-75
2022/02/11 08:42:54;;;;;;;13.05;0.52;;;4.60;99.90;;;;;;5045690;28;20113;-74
2022/02/11 08:45:20;;;;;;;14.80;0.82;;;4.70;99.90;;;;;;5053885;28;20035;-74
2022/02/11 08:47:46;;;;;;;11.30;0.38;;;4.80;99.90;;;;;;5053946;28;20025;-74
2022/02/11 08:50:18;;;;;;;11.27;1.27;;;4.90;99.90;;;;;;5052482;28;20039;-75
2022/02/11 08:52:44;;;;;;;19.23;0.93;;;5.10;99.90;;;;;;5051353;28;20051;-75
2022/02/11 08:55:10;;;;;;;10.98;0.85;;;5.20;99.90;;;;;;5034948;28;20486;-75
2022/02/11 08:57:43;;;;;;;11.45;0.90;;;5.30;99.90;;;;;;5036539;28;20083;-75
2022/02/11 09:00:09;;;;;;;12.45;0.45;;;5.40;99.90;;;;;;5033836;28;20036;-75
2022/02/11 09:02:36;;;;;;;8.68;0.60;;;5.50;99.90;;;;;;5032710;28;20029;-75
2022/02/11 09:05:02;;;;;;;9.85;0.88;;;5.60;99.90;;;;;;5032637;28;20033;-75
2022/02/11 09:07:28;;;;;;;11.45;0.57;;;5.70;99.90;;;;;;5040276;28;20032;-75
2022/02/11 09:09:53;;;;;;;11.63;0.17;;;5.80;99.90;;;;;;5048225;28;20120;-75
2022/02/11 09:12:19;;;;;;;10.57;1.95;;;5.90;99.90;;;;;;5033499;28;20071;-76
2022/02/11 09:14:44;;;;;;;12.93;0.40;;;5.90;99.90;;;;;;5033431;28;20108;-75
2022/02/11 09:17:10;;;;;;;12.80;0.38;;;5.90;99.90;;;;;;5033335;28;20075;-77
2022/02/11 09:19:36;;;;;;;7.78;0.25;;;5.90;99.90;;;;;;5032283;28;20029;-75
2022/02/11 09:22:01;;;;;;;9.63;0.70;;;5.80;99.90;;;;;;5032276;28;20391;-76
2022/02/11 09:24:27;;;;;;;8.07;0.30;;;5.80;99.90;;;;;;5033545;28;20022;-75
2022/02/11 09:26:52;;;;;;;8.25;0.10;;;5.70;99.90;;;;;;5033508;28;20073;-75
2022/02/11 09:29:18;;;;;;;9.73;0.57;;;5.90;99.90;;;;;;5033365;28;20099;-75
2022/02/11 09:31:43;;;;;;;11.40;0.22;;;6.00;99.90;;;;;;5032059;28;20029;-75
2022/02/11 09:34:12;;;;;;;12.60;0.90;;;6.30;99.90;;;;;;5032140;28;20112;-76
2022/02/11 09:36:39;;;;;;;13.02;1.33;;;6.50;99.90;;;;;;5033611;28;20374;-76
2022/02/11 09:39:10;;;;;;;12.88;1.17;;;6.70;99.90;;;;;;5034831;28;20364;-76
2022/02/11 09:41:37;;;;;;;11.73;0.40;;;6.80;99.90;;;;;;5033608;28;20021;-75
2022/02/11 09:44:05;;;;;;;11.05;1.08;;;6.70;99.90;;;;;;5033223;28;20032;-75
2022/02/11 09:46:33;;;;;;;8.40;0.25;;;6.80;99.90;;;;;;5049379;28;20370;-76
2022/02/11 09:48:59;;;;;;;10.85;0.80;;;6.80;99.90;;;;;;5057030;28;20161;-76
2022/02/11 09:51:25;;;;;;;4.05;0.20;;;6.80;98.40;;;;;;5057150;28;20051;-75
2022/02/11 09:53:51;;;;;;;4.82;0.70;;;6.90;96.40;;;;;;5055683;28;20504;-76
2022/02/11 09:56:17;;;;;;;4.25;0.20;;;7.00;93.30;;;;;;5057031;28;20017;-76
2022/02/11 09:58:43;;;;;;;6.68;1.08;;;7.10;95.30;;;;;;5055571;28;20476;-75
2022/02/11 10:01:10;;;;;;;6.57;0.65;;;7.20;96.30;;;;;;5057019;28;20027;-76
2022/02/11 10:03:35;;;;;;;8.68;0.85;;;7.40;94.50;;;;;;5056740;28;20371;-75
2022/02/11 10:06:06;;;;;;;4.80;0.57;;;7.50;90.40;;;;;;5056686;28;20100;-75
2022/02/11 10:08:35;;;;;;;12.13;0.35;;;7.50;92.30;;;;;;5057266;28;20048;-76
2022/02/11 10:11:02;;;;;;;4.82;0.20;;;7.40;93.80;;;;;;5056568;28;20025;-75
2022/02/11 10:13:32;;;;;;;11.10;0.50;;;7.30;93.90;;;;;;5055314;28;20486;-75
2022/02/11 10:16:01;;;;;;;7.40;0.20;;;7.20;95.10;;;;;;5056481;28;20021;-75
2022/02/11 10:18:31;;;;;;;6.47;0.47;;;7.10;94.20;;;;;;5055230;28;20027;-77
2022/02/11 10:21:00;;;;;;;10.40;1.00;;;6.90;91.70;;;;;;5056463;28;20510;-77
2022/02/11 10:23:31;;;;;;;9.25;0.00;;;6.70;90.90;;;;;;5056704;28;20017;-76
2022/02/11 10:26:02;;;;;;;3.92;0.00;;;6.60;92.30;;;;;;5056295;28;20528;-75
2022/02/11 10:28:35;;;;;;;9.63;0.22;;;6.70;92.70;;;;;;5055857;28;20021;-75
2022/02/11 10:31:30;;;;;;;4.22;0.10;;;6.70;92.10;;;;;;5055319;28;20097;-75
2022/02/11 10:34:07;;;;;;;8.77;0.32;;;6.80;93.10;;;;;;5054714;28;20090;-76
2022/02/11 10:36:43;;;;;;;12.40;0.55;;;6.90;91.10;;;;;;5054875;28;20025;-75
2022/02/11 10:39:09;;;;;;;4.60;0.10;;;7.00;90.50;;;;;;5054870;28;20028;-76
2022/02/11 10:41:45;;;;;;;3.40;0.00;;;7.00;90.20;;;;;;5056091;28;20025;-76
2022/02/11 10:44:14;;;;;;;11.40;0.20;;;7.10;85.90;;;;;;5054958;28;20088;-76
2022/02/11 10:46:42;;;;;;;3.67;0.25;;;7.20;83.60;;;;;;5056097;28;20031;-76
2022/02/11 10:49:09;;;;;;;9.85;0.30;;;7.20;81.10;;;;;;5056135;28;20029;-76
2022/02/11 10:51:43;;;;;;;6.20;0.43;;;7.20;76.00;;;;;;5055794;28;20028;-76
2022/02/11 10:54:35;;;;;;;2.42;0.28;;;7.30;81.00;;;;;;5054385;28;20024;-76
2022/02/11 10:57:03;;;;;;;11.32;0.75;;;7.40;81.90;;;;;;5053821;28;20017;-76
2022/02/11 10:59:34;;;;;;;7.55;0.10;;;7.50;80.80;;;;;;5055681;28;20082;-76
2022/02/11 11:02:08;;;;;;;4.05;0.30;;;7.60;78.40;;;;;;5055826;28;20104;-76
2022/02/11 11:04:34;;;;;;;4.00;0.00;;;7.70;81.50;;;;;;5055736;28;20036;-76
2022/02/11 11:07:01;;;;;;;5.50;0.00;;;7.90;74.00;;;;;;5055558;28;20075;-76
2022/02/11 11:09:28;;;;;;;7.25;0.30;;;8.10;75.70;;;;;;5053172;28;20025;-76
2022/02/11 11:11:55;;;;;;;5.53;0.22;;;8.10;71.30;;;;;;5034189;28;20032;-76
2022/02/11 11:14:24;;;;;;;4.68;0.47;;;8.20;74.50;;;;;;5045254;28;20013;-76
2022/02/11 11:16:51;;;;;;;4.28;0.35;;;8.30;78.10;;;;;;5053504;28;20029;-77
2022/02/11 11:19:18;;;;;;;3.83;0.00;;;8.20;75.70;;;;;;5054712;28;20113;-76
2022/02/11 11:21:47;;;;;;;1.20;0.20;;;8.20;78.30;;;;;;5054970;28;20025;-77
2022/02/11 11:24:13;;;;;;;;;;;8.20;82.00;;;;;;5040476;28;20033;-76
2022/02/11 11:26:42;;;;;;;6.97;0.30;;;8.00;81.00;;;;;;5053255;28;19909;-76
2022/02/11 11:29:27;;;;;;;6.93;0.28;;;7.90;82.60;;;;;;5053718;28;20057;-76
2022/02/11 11:31:58;;;;;;;9.10;1.08;;;7.80;85.50;;;;;;5051343;28;20025;-76
2022/02/11 11:34:24;;;;;;;4.68;0.25;;;7.80;88.30;;;;;;5051346;28;20428;-76
2022/02/11 11:36:52;;;;;;;7.57;0.00;;;7.80;87.30;;;;;;5048227;28;20029;-76
2022/02/11 11:39:20;;;;;;;7.45;0.10;;;7.70;88.60;;;;;;5055131;28;20094;-76
2022/02/11 11:42:07;;;;;;;8.80;0.20;;;7.70;88.10;;;;;;5054736;28;20033;-76
2022/02/11 11:44:43;;;;;;;6.32;0.30;;;7.70;90.00;;;;;;5054882;28;20440;-76
2022/02/11 11:47:13;;;;;;;12.13;0.10;;;7.80;86.00;;;;;;5050046;28;20381;-76
2022/02/11 11:49:41;;;;;;;6.07;0.20;;;7.90;85.40;;;;;;5053372;28;20059;-76
2022/02/11 11:52:09;;;;;;;4.13;0.25;;;8.00;85.30;;;;;;5054609;28;20025;-76
2022/02/11 11:54:35;;;;;;;10.57;0.20;;;8.00;86.50;;;;;;5053346;28;20025;-76
2022/02/11 11:57:12;;;;;;;4.57;0.08;;;8.00;89.30;;;;;;5042483;28;20477;-76
2022/02/11 11:59:57;;;;;;;2.85;0.08;;;8.10;89.20;;;;;;5042317;28;20390;-76
2022/02/11 12:02:38;;;;;;;7.60;0.55;;;8.30;84.80;;;;;;5049575;28;20025;-77
2022/02/11 12:05:04;;;;;;;6.70;0.10;;;9.90;82.40;;;;;;5051888;28;20049;-76
2022/02/11 12:07:33;;;;;;;6.72;0.25;;;8.60;79.70;;;;;;5053987;28;20025;-76
2022/02/11 12:10:00;;;;;;;3.13;0.10;;;8.80;80.70;;;;;;5052602;28;20505;-76
2022/02/11 12:12:28;;;;;;;7.53;0.22;;;9.00;68.20;;;;;;5052855;28;20044;-76
2022/02/11 12:14:56;;;;;;;8.23;0.30;;;9.20;71.10;;;;;;5052045;28;20025;-76
2022/02/11 12:17:22;;;;;;;5.28;0.10;;;9.30;73.20;;;;;;5044574;28;20031;-76
2022/02/11 12:19:49;;;;;;;6.53;0.47;;;9.50;71.90;;;;;;5054545;28;20470;-76
2022/02/11 12:22:17;;;;;;;5.57;0.25;;;9.60;65.30;;;;;;5054023;28;20478;-76
2022/02/11 12:27:34;;;;;;;4.32;0.20;;;9.20;66.30;;;;;;5034292;28;20064;-76
2022/02/11 12:30:06;;;;;;;6.00;0.43;;;9.00;67.60;;;;;;5034023;28;20035;-77
2022/02/11 12:32:40;;;;;;;9.10;0.22;;;8.70;70.70;;;;;;5034024;28;20053;-76
2022/02/11 12:35:13;;;;;;;12.82;1.13;;;8.50;72.30;;;;;;5038943;28;20389;-76
2022/02/11 12:37:41;;;;;;;13.75;1.27;;;8.10;74.40;;;;;;5054508;28;20033;-76
2022/02/11 12:40:12;;;;;;;5.30;0.52;;;8.00;78.20;;;;;;5044383;28;20132;-77
2022/02/11 12:42:43;;;;;;;7.78;0.30;;;7.90;79.70;;;;;;5039386;28;20086;-76
2022/02/11 12:45:10;;;;;;;8.60;0.22;;;7.90;80.30;;;;;;5047149;28;20107;-77
2022/02/11 12:47:37;;;;;;;9.30;0.30;;;7.80;78.40;;;;;;5038963;28;20030;-77
2022/02/11 12:50:05;;;;;;;8.30;0.52;;;7.70;78.90;;;;;;5053517;28;20108;-77
2022/02/11 12:52:34;;;;;;;1.75;0.00;;;7.60;79.20;;;;;;5038006;28;20359;-77
2022/02/11 12:55:19;;;;;;;5.63;0.17;;;7.50;85.00;;;;;;5034222;28;20524;-77
2022/02/11 12:57:52;;;;;;;8.45;0.17;;;7.60;83.80;;;;;;5034058;28;20021;-76
2022/02/11 13:00:22;;;;;;;11.98;0.10;;;7.80;86.80;;;;;;5043602;28;20021;-77
2022/02/11 13:02:50;;;;;;;8.38;0.82;;;8.30;83.60;;;;;;5035906;28;20026;-77
2022/02/11 13:05:17;;;;;;;3.10;0.00;;;8.70;85.40;;;;;;5033270;28;20025;-77
2022/02/11 13:07:45;;;;;;;5.47;0.10;;;9.10;75.90;;;;;;5040691;28;20498;-77
2022/02/11 13:10:37;;;;;;;6.90;0.70;;;9.40;75.70;;;;;;5033764;28;20479;-77
2022/02/11 13:13:04;;;;;;;6.85;0.00;;;9.70;71.70;;;;;;5033027;28;20029;-77
2022/02/11 13:15:31;;;;;;;4.07;0.55;;;10.00;67.40;;;;;;5038764;28;20478;-77
2022/02/11 13:18:16;;;;;;;8.18;0.50;;;10.30;69.80;;;;;;5052096;28;20083;-77
2022/02/11 13:20:44;;;;;;;4.00;0.00;;;10.30;63.00;;;;;;5041384;28;20037;-77
2022/02/11 13:23:14;;;;;;;4.80;0.15;;;10.50;60.80;;;;;;5032864;28;20068;-77
2022/02/11 13:25:41;;;;;;;3.90;0.10;;;10.40;60.00;;;;;;5040627;28;20029;-77
2022/02/11 13:28:10;;;;;;;2.05;0.00;;;10.20;61.60;;;;;;5033917;28;20029;-77
2022/02/11 13:30:38;;;;;;;6.18;0.08;;;10.20;60.30;;;;;;5032743;28;20024;-77
2022/02/11 13:33:22;;;;;;;5.15;0.20;;;9.90;60.20;;;;;;5034106;28;20025;-77
2022/02/11 13:35:48;;;;;;;4.03;0.57;;;9.60;62.30;;;;;;5038625;28;20028;-76
2022/02/11 13:38:31;;;;;;;3.47;0.00;;;9.60;63.70;;;;;;5052155;28;20509;-76
2022/02/11 13:41:09;;;;;;;2.40;0.00;;;9.50;61.40;;;;;;5052158;28;20115;-77
2022/02/11 13:43:53;;;;;;;3.85;0.10;;;9.50;65.00;;;;;;5054140;28;20108;-76
2022/02/11 13:46:29;;;;;;;4.07;0.00;;;9.70;64.10;;;;;;5044610;28;20383;-77
2022/02/11 13:48:57;;;;;;;4.35;0.00;;;10.00;59.90;;;;;;5031856;28;20124;-77
2022/02/11 13:51:23;;;;;;;0.65;0.00;;;10.40;60.00;;;;;;5033446;28;20045;-77
2022/02/11 13:53:53;;;;;;;1.45;0.00;;;10.70;55.90;;;;;;5033189;28;20418;-76
2022/02/11 13:56:30;;;;;;;4.07;0.10;;;10.90;57.00;;;;;;5033139;28;20096;-76
2022/02/11 13:59:10;;;;;;;1.70;0.15;;;10.80;58.60;;;;;;5045300;28;20490;-77
2022/02/11 14:01:46;;;;;;;3.17;0.00;;;10.40;57.20;;;;;;5053201;28;20029;-77
2022/02/11 14:04:15;;;;;;;4.63;0.00;;;10.00;57.00;;;;;;5043307;28;20024;-77
2022/02/11 14:06:48;;;;;;;3.83;0.82;;;9.60;58.10;;;;;;5031675;28;20439;-77
2022/02/11 14:09:37;;;;;;;1.42;0.00;;;9.20;59.70;;;;;;5050451;28;20059;-77
2022/02/11 14:12:04;;;;;;;1.75;0.03;;;8.90;60.80;;;;;;5051731;28;20100;-77
2022/02/11 14:14:32;;;;;;;3.17;0.00;;;8.70;65.20;;;;;;5052838;28;20029;-77
2022/02/11 14:16:58;;;;;;;2.90;0.20;;;8.60;66.00;;;;;;5042305;28;20029;-76
2022/02/11 14:19:25;;;;;;;1.75;0.00;;;8.40;66.90;;;;;;5032887;28;20033;-77
2022/02/11 14:21:52;;;;;;;3.13;0.10;;;8.30;69.10;;;;;;5032950;28;20033;-77
2022/02/11 14:24:20;;;;;;;3.75;0.10;;;8.10;67.10;;;;;;5031972;28;20044;-77
2022/02/11 14:26:45;;;;;;;5.20;0.10;;;8.10;68.50;;;;;;5033274;28;20037;-77
2022/02/11 14:29:11;;;;;;;4.93;0.15;;;8.00;69.60;;;;;;5042171;28;20413;-77
2022/02/11 14:31:39;;;;;;;2.35;0.08;;;8.00;68.30;;;;;;5052785;28;20040;-77
2022/02/11 14:34:05;;;;;;;8.95;0.10;;;8.00;69.80;;;;;;5055037;28;20044;-77
2022/02/11 14:36:31;;;;;;;3.03;0.03;;;8.40;70.70;;;;;;5057069;28;20028;-76
2022/02/11 14:38:56;;;;;;;1.40;0.17;;;9.20;67.00;;;;;;5055772;28;20029;-77
2022/02/11 14:44:08;;;;;;;5.55;0.13;;;10.40;63.40;;;;;;5037676;28;20039;-77
2022/02/11 14:46:33;;;;;;;3.03;0.00;;;10.30;60.40;;;;;;5035596;28;20025;-78
2022/02/11 14:48:59;;;;;;;1.75;0.55;;;10.00;60.60;;;;;;5036609;28;20335;-77
2022/02/11 14:51:24;;;;;;;4.53;0.00;;;9.60;63.00;;;;;;5036742;28;20030;-77
2022/02/11 14:53:51;;;;;;;5.30;0.20;;;9.20;63.80;;;;;;5036306;28;20033;-77
2022/02/11 14:56:17;;;;;;;2.45;0.00;;;9.00;66.90;;;;;;5054044;28;20557;-77
2022/02/11 14:58:43;;;;;;;0.40;0.00;;;8.70;67.30;;;;;;5056194;28;20025;-77
2022/02/11 15:01:09;;;;;;;1.92;0.00;;;8.50;70.70;;;;;;5056549;28;20494;-77
2022/02/11 15:03:35;;;;;;;3.60;0.10;;;8.40;72.20;;;;;;5052583;28;20033;-77
2022/02/11 15:06:00;;;;;;;7.57;0.98;;;8.30;75.10;;;;;;5056040;28;20025;-77
2022/02/11 15:08:26;;;;;;;1.55;0.00;;;8.20;81.40;;;;;;5055548;28;20025;-77
2022/02/11 15:10:52;;;;;;;2.78;0.10;;;8.10;81.80;;;;;;5052846;28;20078;-77
2022/02/11 15:13:17;;;;;;;8.15;0.25;;;8.10;83.90;;;;;;5034351;28;20109;-75
2022/02/11 15:15:43;;;;;;;6.25;0.10;;;8.00;86.80;;;;;;5036033;28;20025;-77
2022/02/11 15:18:10;;;;;;;5.35;0.20;;;7.80;88.70;;;;;;5036121;28;20017;-77
2022/02/11 15:20:40;;;;;;;5.53;0.13;;;7.70;90.20;;;;;;5036349;28;20029;-76
2022/02/11 15:23:06;;;;;;;3.33;0.20;;;7.90;91.60;;;;;;5035737;28;20475;-77
2022/02/11 15:25:35;;;;;;;7.45;0.13;;;8.50;90.30;;;;;;5055128;28;20032;-77
2022/02/11 15:28:01;;;;;;;8.85;0.35;;;9.20;85.60;;;;;;5054547;28;20033;-77
2022/02/11 15:30:27;;;;;;;3.15;0.00;;;9.90;72.60;;;;;;5054205;28;20116;-77
2022/02/11 15:32:52;;;;;;;1.13;0.10;;;10.40;71.60;;;;;;5038708;28;20061;-77
2022/02/11 15:35:18;;;;;;;8.95;0.50;;;10.70;68.50;;;;;;5035791;28;20049;-77
2022/02/11 15:37:44;;;;;;;3.10;0.03;;;10.80;66.90;;;;;;5035536;28;20526;-77
2022/02/11 15:40:10;;;;;;;4.03;0.43;;;10.60;67.00;;;;;;5035112;28;20097;-77
2022/02/11 15:42:36;;;;;;;3.45;0.05;;;10.50;66.70;;;;;;5033562;28;20029;-77
2022/02/11 15:45:06;;;;;;;4.32;0.10;;;10.20;66.60;;;;;;5047953;28;20036;-77
2022/02/11 15:47:31;;;;;;;7.20;0.00;;;9.90;68.80;;;;;;5052758;28;20029;-77
2022/02/11 15:49:57;;;;;;;2.47;0.00;;;9.50;70.60;;;;;;5055103;28;20032;-77
2022/02/11 15:52:23;;;;;;;2.88;0.00;;;9.10;71.70;;;;;;5053583;28;20025;-77
2022/02/11 15:54:49;;;;;;;7.97;0.00;;;8.80;75.20;;;;;;5054951;28;20032;-77
2022/02/11 15:57:15;;;;;;;3.60;0.00;;;8.50;77.50;;;;;;5053848;28;20032;-77
2022/02/11 15:59:42;;;;;;;4.90;0.30;;;8.20;78.60;;;;;;5043779;28;20022;-77
2022/02/11 16:02:08;;;;;;;6.93;0.15;;;8.00;80.70;;;;;;5035064;28;20033;-77
2022/02/11 16:04:33;;;;;;;4.18;0.35;;;7.80;84.40;;;;;;5045136;28;20525;-77
2022/02/11 16:07:00;;;;;;;3.17;0.00;;;7.60;87.70;;;;;;5055225;28;20021;-77
2022/02/11 16:09:26;;;;;;;6.38;0.00;;;7.40;88.80;;;;;;5035559;28;20028;-77
2022/02/11 16:11:52;;;;;;;2.78;0.22;;;7.20;90.10;;;;;;5034754;28;20025;-77
2022/02/11 16:14:17;;;;;;;4.53;0.10;;;7.00;91.00;;;;;;5033127;28;20087;-77
2022/02/11 16:16:43;;;;;;;2.15;0.10;;;6.80;92.60;;;;;;5034832;28;20466;-77
2022/02/11 16:19:09;;;;;;;3.63;0.00;;;6.60;93.60;;;;;;5033271;28;20067;-77
2022/02/11 16:21:35;;;;;;;3.38;0.77;;;6.40;94.80;;;;;;5034768;28;20025;-77
2022/02/11 16:24:01;;;;;;;5.65;0.08;;;6.30;94.70;;;;;;5034381;28;20052;-77
2022/02/11 16:26:27;;;;;;;6.90;0.10;;;6.10;97.30;;;;;;5034753;28;20021;-77
2022/02/11 16:28:52;;;;;;;1.48;0.10;;;6.00;99.30;;;;;;5050526;28;20017;-77
2022/02/11 16:31:24;;;;;;;5.45;0.10;;;5.90;99.30;;;;;;5033443;28;20482;-77
2022/02/11 16:33:51;;;;;;;1.35;0.00;;;5.70;99.90;;;;;;5033382;28;20026;-77
2022/02/11 16:36:19;;;;;;;2.67;0.20;;;5.60;99.90;;;;;;5034691;28;20382;-77
2022/02/11 16:38:45;;;;;;;3.88;0.20;;;5.40;99.90;;;;;;5034358;28;20506;-77
2022/02/11 16:41:12;;;;;;;6.03;0.75;;;5.30;99.90;;;;;;5039333;28;20021;-77
2022/02/11 16:43:38;;;;;;;9.98;0.70;;;5.20;99.90;;;;;;5054385;28;20032;-77
2022/02/11 16:46:05;;;;;;;3.90;0.63;;;5.10;99.90;;;;;;5053969;28;20029;-77